Time,TemperatureF,DewpointF,PressureIn,WindDirection,WindDirectionDegrees,WindSpeedMPH,WindSpeedGustMPH,Humidity,HourlyPrecipIn,Conditions,Clouds,dailyrainin,SoftwareType,DateUTC
2013-03-20 00:02:00,41.0,24.0,-100.00,ESE,123,10.0,14.0,50,-99.99,,,-99.99,,2013-03-20 07:02:00,
2013-03-20 00:12:00,42.0,24.0,-100.00,ESE,114,10.0,17.0,49,-99.99,,,-99.99,,2013-03-20 07:12:00,
2013-03-20 00:22:00,41.0,25.0,-100.00,ESE,120,10.0,14.0,52,-99.99,,,-99.99,,2013-03-20 07:22:00,
2013-03-20 00:32:00,41.0,25.0,-100.00,SE,130,10.0,15.0,53,-99.99,,,-99.99,,2013-03-20 07:32:00,
2013-03-20 00:42:00,41.0,25.0,-100.00,ESE,110,11.0,15.0,53,-99.99,,,-99.99,,2013-03-20 07:42:00,
2013-03-20 00:52:00,41.0,25.0,-100.00,ESE,113,9.0,12.0,53,-99.99,,,-99.99,,2013-03-20 07:52:00,
2013-03-20 01:02:00,41.0,25.0,-100.00,ESE,112,9.0,13.0,51,-99.99,,,-99.99,,2013-03-20 08:02:00,
2013-03-20 01:12:00,42.0,25.0,-100.00,ESE,116,7.0,11.0,51,-99.99,,,-99.99,,2013-03-20 08:12:00,
2013-03-20 01:22:00,42.0,25.0,-100.00,ESE,116,7.0,11.0,51,-99.99,,,-99.99,,2013-03-20 08:22:00,
2013-03-20 01:32:00,41.0,25.0,-100.00,ESE,109,7.0,10.0,53,-99.99,,,-99.99,,2013-03-20 08:32:00,
2013-03-20 01:42:00,41.0,25.0,-100.00,ESE,110,7.0,10.0,53,-99.99,,,-99.99,,2013-03-20 08:42:00,
2013-03-20 01:52:00,40.0,25.0,-100.00,SE,124,5.0,12.0,55,-99.99,,,-99.99,,2013-03-20 08:52:00,
2013-03-20 02:02:00,40.0,25.0,-100.00,SSE,147,3.0,6.0,54,-99.99,,,-99.99,,2013-03-20 09:02:00,
2013-03-20 02:12:00,40.0,25.0,-100.00,SE,133,4.0,7.0,54,-99.99,,,-99.99,,2013-03-20 09:12:00,
2013-03-20 02:22:00,41.0,24.0,-100.00,South,169,3.0,7.0,52,-99.99,,,-99.99,,2013-03-20 09:22:00,
2013-03-20 02:32:00,39.0,24.0,-100.00,SSW,195,2.0,5.0,56,-99.99,,,-99.99,,2013-03-20 09:32:00,
2013-03-20 02:43:00,38.0,25.0,-100.00,SSW,205,3.0,6.0,59,-99.99,,,-99.99,,2013-03-20 09:43:00,
2013-03-20 02:52:00,36.0,25.0,-100.00,South,185,6.0,10.0,63,-99.99,,,-99.99,,2013-03-20 09:52:00,
2013-03-20 03:03:00,37.0,25.0,-100.00,South,184,9.0,11.0,62,-99.99,,,-99.99,,2013-03-20 10:03:00,
2013-03-20 03:12:00,40.0,24.0,-100.00,SSE,164,9.0,14.0,53,-99.99,,,-99.99,,2013-03-20 10:12:00,
2013-03-20 03:22:00,40.0,24.0,-100.00,SSE,164,9.0,14.0,53,-99.99,,,-99.99,,2013-03-20 10:22:00,
2013-03-20 03:32:00,41.0,24.0,-100.00,SE,131,6.0,9.0,51,-99.99,,,-99.99,,2013-03-20 10:32:00,
2013-03-20 03:42:00,42.0,25.0,-100.00,SE,124,6.0,12.0,50,-99.99,,,-99.99,,2013-03-20 10:42:00,
2013-03-20 03:52:00,42.0,24.0,-100.00,SE,127,6.0,12.0,48,-99.99,,,-99.99,,2013-03-20 10:52:00,
2013-03-20 04:02:00,42.0,24.0,-100.00,SE,138,6.0,13.0,48,-99.99,,,-99.99,,2013-03-20 11:02:00,
2013-03-20 04:12:00,43.0,23.0,-100.00,SE,141,9.0,15.0,45,-99.99,,,-99.99,,2013-03-20 11:12:00,
2013-03-20 04:22:00,43.0,24.0,-100.00,SE,145,9.0,15.0,46,-99.99,,,-99.99,,2013-03-20 11:22:00,
2013-03-20 04:32:00,43.0,24.0,-100.00,SE,143,9.0,14.0,46,-99.99,,,-99.99,,2013-03-20 11:32:00,
2013-03-20 04:42:00,44.0,23.0,-100.00,SE,145,9.0,14.0,43,-99.99,,,-99.99,,2013-03-20 11:42:00,
2013-03-20 04:52:00,44.0,23.0,-100.00,SE,141,9.0,13.0,44,-99.99,,,-99.99,,2013-03-20 11:52:00,
2013-03-20 05:02:00,44.0,23.0,-100.00,SE,133,8.0,13.0,43,-99.99,,,-99.99,,2013-03-20 12:02:00,
2013-03-20 05:12:00,44.0,23.0,-100.00,SE,133,8.0,13.0,43,-99.99,,,-99.99,,2013-03-20 12:12:00,
2013-03-20 05:22:00,44.0,23.0,-100.00,SE,126,8.0,15.0,43,-99.99,,,-99.99,,2013-03-20 12:22:00,
2013-03-20 05:32:00,44.0,23.0,-100.00,SE,126,8.0,15.0,43,-99.99,,,-99.99,,2013-03-20 12:32:00,
2013-03-20 05:42:00,44.0,23.0,-100.00,SE,137,8.0,13.0,43,-99.99,,,-99.99,,2013-03-20 12:42:00,
2013-03-20 05:52:00,43.0,24.0,-100.00,SE,131,9.0,13.0,46,-99.99,,,-99.99,,2013-03-20 12:52:00,
2013-03-20 06:02:00,43.0,24.0,-100.00,SE,133,7.0,11.0,47,-99.99,,,-99.99,,2013-03-20 13:02:00,
2013-03-20 06:12:00,43.0,23.0,-100.00,SE,137,8.0,11.0,46,-99.99,,,-99.99,,2013-03-20 13:12:00,
2013-03-20 06:22:00,42.0,24.0,-100.00,SE,130,7.0,10.0,47,-99.99,,,-99.99,,2013-03-20 13:22:00,
2013-03-20 06:32:00,43.0,23.0,-100.00,ESE,121,6.0,10.0,46,-99.99,,,-99.99,,2013-03-20 13:32:00,
2013-03-20 06:42:00,42.0,24.0,-100.00,ESE,123,6.0,9.0,47,-99.99,,,-99.99,,2013-03-20 13:42:00,
2013-03-20 06:52:00,43.0,23.0,-100.00,SE,144,5.0,8.0,45,-99.99,,,-99.99,,2013-03-20 13:52:00,
2013-03-20 07:02:00,42.0,23.0,-100.00,South,171,6.0,12.0,46,-99.99,,,-99.99,,2013-03-20 14:02:00,
2013-03-20 07:12:00,43.0,23.0,-100.00,South,181,7.0,10.0,44,-99.99,,,-99.99,,2013-03-20 14:12:00,
2013-03-20 07:22:00,43.0,23.0,-100.00,South,182,8.0,11.0,44,-99.99,,,-99.99,,2013-03-20 14:22:00,
2013-03-20 07:33:00,44.0,22.0,-100.00,South,181,8.0,12.0,42,-99.99,,,-99.99,,2013-03-20 14:33:00,
2013-03-20 07:42:00,44.0,22.0,-100.00,South,188,6.0,9.0,41,-99.99,,,-99.99,,2013-03-20 14:42:00,
2013-03-20 07:52:00,44.0,22.0,-100.00,SSW,199,5.0,8.0,42,-99.99,,,-99.99,,2013-03-20 14:52:00,
2013-03-20 08:02:00,44.0,22.0,-100.00,SSW,203,7.0,13.0,42,-99.99,,,-99.99,,2013-03-20 15:02:00,
2013-03-20 08:12:00,44.0,22.0,-100.00,SSW,198,7.0,14.0,41,-99.99,,,-99.99,,2013-03-20 15:12:00,
2013-03-20 08:22:00,44.0,24.0,-100.00,South,191,5.0,10.0,45,-99.99,,,-99.99,,2013-03-20 15:22:00,
2013-03-20 08:33:00,45.0,23.0,-100.00,SSE,150,4.0,13.0,41,-99.99,,,-99.99,,2013-03-20 15:33:00,
2013-03-20 08:43:00,44.0,24.0,-100.00,SE,124,2.0,7.0,44,-99.99,,,-99.99,,2013-03-20 15:43:00,
2013-03-20 08:52:00,45.0,24.0,-100.00,SSE,150,2.0,5.0,43,-99.99,,,-99.99,,2013-03-20 15:52:00,
2013-03-20 09:02:00,48.0,20.0,-100.00,SSW,212,7.0,19.0,32,-99.99,,,-99.99,,2013-03-20 16:02:00,
2013-03-20 09:12:00,48.0,20.0,-100.00,SSW,212,7.0,19.0,32,-99.99,,,-99.99,,2013-03-20 16:12:00,
2013-03-20 09:23:00,49.0,19.0,-100.00,SW,215,14.0,20.0,31,-99.99,,,-99.99,,2013-03-20 16:23:00,
2013-03-20 09:32:00,49.0,19.0,-100.00,SW,217,14.0,21.0,31,-99.99,,,-99.99,,2013-03-20 16:32:00,
2013-03-20 09:42:00,49.0,19.0,-100.00,SW,215,15.0,23.0,31,-99.99,,,-99.99,,2013-03-20 16:42:00,
2013-03-20 09:52:00,49.0,19.0,-100.00,SW,215,16.0,23.0,31,-99.99,,,-99.99,,2013-03-20 16:52:00,
2013-03-20 10:03:00,49.0,20.0,-100.00,SW,220,13.0,21.0,31,-99.99,,,-99.99,,2013-03-20 17:03:00,
2013-03-20 10:12:00,49.0,19.0,-100.00,SW,216,9.0,16.0,30,-99.99,,,-99.99,,2013-03-20 17:12:00,
2013-03-20 10:22:00,50.0,20.0,-100.00,SSW,206,5.0,12.0,31,-99.99,,,-99.99,,2013-03-20 17:22:00,
2013-03-20 10:32:00,50.0,19.0,-100.00,South,169,4.0,9.0,30,-99.99,,,-99.99,,2013-03-20 17:32:00,
2013-03-20 10:42:00,50.0,19.0,-100.00,SSE,157,9.0,17.0,30,-99.99,,,-99.99,,2013-03-20 17:42:00,
2013-03-20 10:52:00,50.0,19.0,-100.00,South,189,11.0,17.0,29,-99.99,,,-99.99,,2013-03-20 17:52:00,
2013-03-20 11:02:00,50.0,20.0,-100.00,South,191,11.0,16.0,30,-99.99,,,-99.99,,2013-03-20 18:02:00,
2013-03-20 11:12:00,50.0,20.0,-100.00,SSW,203,11.0,17.0,30,-99.99,,,-99.99,,2013-03-20 18:12:00,
2013-03-20 11:22:00,50.0,20.0,-100.00,SSW,203,11.0,17.0,30,-99.99,,,-99.99,,2013-03-20 18:22:00,
2013-03-20 11:33:00,52.0,21.0,-100.00,SSW,210,9.0,14.0,29,-99.99,,,-99.99,,2013-03-20 18:33:00,
2013-03-20 11:42:00,52.0,20.0,-100.00,SSW,209,9.0,17.0,28,-99.99,,,-99.99,,2013-03-20 18:42:00,
2013-03-20 11:52:00,53.0,21.0,-100.00,SW,219,9.0,16.0,28,-99.99,,,-99.99,,2013-03-20 18:52:00,
2013-03-20 12:02:00,52.0,20.0,-100.00,SW,220,6.0,11.0,28,-99.99,,,-99.99,,2013-03-20 19:02:00,
2013-03-20 12:12:00,54.0,21.0,-100.00,SW,223,7.0,13.0,27,-99.99,,,-99.99,,2013-03-20 19:12:00,
2013-03-20 12:22:00,54.0,21.0,-100.00,SW,223,7.0,13.0,27,-99.99,,,-99.99,,2013-03-20 19:22:00,
2013-03-20 12:32:00,54.0,22.0,-100.00,WSW,257,7.0,17.0,28,-99.99,,,-99.99,,2013-03-20 19:32:00,
2013-03-20 12:42:00,53.0,21.0,-100.00,WSW,243,11.0,18.0,28,-99.99,,,-99.99,,2013-03-20 19:42:00,
2013-03-20 12:52:00,53.0,21.0,-100.00,WSW,243,11.0,18.0,28,-99.99,,,-99.99,,2013-03-20 19:52:00,
2013-03-20 13:02:00,55.0,22.0,-100.00,SW,234,11.0,19.0,27,-99.99,,,-99.99,,2013-03-20 20:02:00,
2013-03-20 13:12:00,54.0,21.0,-100.00,SW,217,13.0,22.0,27,-99.99,,,-99.99,,2013-03-20 20:12:00,
2013-03-20 13:22:00,54.0,21.0,-100.00,SW,222,12.0,23.0,27,-99.99,,,-99.99,,2013-03-20 20:22:00,
2013-03-20 13:32:00,54.0,21.0,-100.00,SW,222,12.0,23.0,27,-99.99,,,-99.99,,2013-03-20 20:32:00,
2013-03-20 13:42:00,54.0,22.0,-100.00,SW,219,8.0,13.0,29,-99.99,,,-99.99,,2013-03-20 20:42:00,
2013-03-20 13:53:00,53.0,22.0,-100.00,SSW,213,6.0,14.0,29,-99.99,,,-99.99,,2013-03-20 20:53:00,
2013-03-20 14:02:00,54.0,21.0,-100.00,South,186,7.0,12.0,28,-99.99,,,-99.99,,2013-03-20 21:02:00,
2013-03-20 14:12:00,53.0,22.0,-100.00,South,174,5.0,11.0,29,-99.99,,,-99.99,,2013-03-20 21:12:00,
2013-03-20 14:22:00,53.0,22.0,-100.00,SSE,162,5.0,12.0,29,-99.99,,,-99.99,,2013-03-20 21:22:00,
2013-03-20 14:33:00,54.0,22.0,-100.00,South,186,9.0,17.0,28,-99.99,,,-99.99,,2013-03-20 21:33:00,
2013-03-20 14:42:00,55.0,22.0,-100.00,SSW,212,10.0,17.0,28,-99.99,,,-99.99,,2013-03-20 21:42:00,
2013-03-20 14:52:00,55.0,22.0,-100.00,SSW,208,10.0,18.0,28,-99.99,,,-99.99,,2013-03-20 21:52:00,
2013-03-20 15:03:00,54.0,22.0,-100.00,SW,224,14.0,29.0,28,-99.99,,,-99.99,,2013-03-20 22:03:00,
2013-03-20 15:12:00,55.0,23.0,-100.00,WSW,241,13.0,18.0,28,-99.99,,,-99.99,,2013-03-20 22:12:00,
2013-03-20 15:23:00,55.0,23.0,-100.00,WSW,241,13.0,18.0,28,-99.99,,,-99.99,,2013-03-20 22:23:00,
2013-03-20 15:32:00,55.0,24.0,-100.00,WSW,247,10.0,17.0,29,-99.99,,,-99.99,,2013-03-20 22:32:00,
2013-03-20 15:42:00,55.0,22.0,-100.00,WSW,250,9.0,17.0,27,-99.99,,,-99.99,,2013-03-20 22:42:00,
2013-03-20 15:52:00,55.0,22.0,-100.00,WSW,250,9.0,17.0,27,-99.99,,,-99.99,,2013-03-20 22:52:00,
2013-03-20 16:02:00,56.0,22.0,-100.00,SW,226,14.0,25.0,27,-99.99,,,-99.99,,2013-03-20 23:02:00,
2013-03-20 16:12:00,56.0,22.0,-100.00,SW,224,15.0,24.0,26,-99.99,,,-99.99,,2013-03-20 23:12:00,
2013-03-20 16:22:00,57.0,23.0,-100.00,SW,217,10.0,17.0,27,-99.99,,,-99.99,,2013-03-20 23:22:00,
2013-03-20 16:32:00,55.0,22.0,-100.00,SW,224,12.0,19.0,27,-99.99,,,-99.99,,2013-03-20 23:32:00,
2013-03-20 16:42:00,56.0,23.0,-100.00,SW,232,12.0,19.0,28,-99.99,,,-99.99,,2013-03-20 23:42:00,
2013-03-20 16:52:00,55.0,24.0,-100.00,WSW,237,12.0,22.0,29,-99.99,,,-99.99,,2013-03-20 23:52:00,
2013-03-20 17:02:00,56.0,23.0,-100.00,SW,219,13.0,20.0,27,-99.99,,,-99.99,,2013-03-21 00:02:00,
2013-03-20 17:12:00,56.0,23.0,-100.00,SW,233,13.0,22.0,28,-99.99,,,-99.99,,2013-03-21 00:12:00,
2013-03-20 17:22:00,55.0,23.0,-100.00,SW,232,13.0,19.0,28,-99.99,,,-99.99,,2013-03-21 00:22:00,
2013-03-20 17:32:00,55.0,23.0,-100.00,SW,223,12.0,18.0,29,-99.99,,,-99.99,,2013-03-21 00:32:00,
2013-03-20 17:42:00,55.0,23.0,-100.00,SW,223,12.0,18.0,29,-99.99,,,-99.99,,2013-03-21 00:42:00,
2013-03-20 17:52:00,55.0,23.0,-100.00,SW,223,12.0,18.0,29,-99.99,,,-99.99,,2013-03-21 00:52:00,
2013-03-20 18:02:00,54.0,24.0,-100.00,SW,232,11.0,17.0,31,-99.99,,,-99.99,,2013-03-21 01:02:00,
2013-03-20 18:12:00,53.0,23.0,-100.00,WSW,253,5.0,8.0,31,-99.99,,,-99.99,,2013-03-21 01:12:00,
2013-03-20 18:22:00,53.0,25.0,-100.00,West,271,5.0,8.0,34,-99.99,,,-99.99,,2013-03-21 01:22:00,
2013-03-20 18:32:00,50.0,27.0,-100.00,WNW,295,7.0,28.0,40,-99.99,,,-99.99,,2013-03-21 01:32:00,
2013-03-20 18:42:00,50.0,28.0,-100.00,NW,309,15.0,26.0,43,-99.99,,,-99.99,,2013-03-21 01:42:00,
2013-03-20 18:52:00,50.0,30.0,-100.00,NNW,330,11.0,22.0,46,-99.99,,,-99.99,,2013-03-21 01:52:00,
2013-03-20 19:02:00,49.0,30.0,-100.00,NW,326,19.0,29.0,48,-99.99,,,-99.99,,2013-03-21 02:02:00,
2013-03-20 19:12:00,48.0,31.0,-100.00,NW,313,11.0,21.0,51,-99.99,,,-99.99,,2013-03-21 02:12:00,
2013-03-20 19:22:00,48.0,31.0,-100.00,NW,320,9.0,14.0,53,-99.99,,,-99.99,,2013-03-21 02:22:00,
2013-03-20 19:32:00,47.0,30.0,-100.00,NW,325,5.0,10.0,51,-99.99,,,-99.99,,2013-03-21 02:32:00,
2013-03-20 19:40:00,46.0,30.0,-100.00,South,172,5.0,8.0,53,-99.99,,,-99.99,,2013-03-21 02:40:00,
2013-03-20 19:42:00,47.0,30.0,-100.00,NW,325,5.0,10.0,51,-99.99,,,-99.99,,2013-03-21 02:42:00,
2013-03-20 19:51:00,47.0,30.0,-100.00,NW,325,5.0,10.0,51,-99.99,,,-99.99,,2013-03-21 02:51:00,
2013-03-20 20:02:00,50.0,26.0,-100.00,West,281,6.0,14.0,39,-99.99,,,-99.99,,2013-03-21 03:02:00,
2013-03-20 20:12:00,46.0,30.0,-100.00,South,172,5.0,8.0,53,-99.99,,,-99.99,,2013-03-21 03:12:00,
2013-03-20 20:22:00,46.0,30.0,-100.00,South,172,5.0,8.0,53,-99.99,,,-99.99,,2013-03-21 03:22:00,
2013-03-20 20:32:00,46.0,30.0,-100.00,South,172,5.0,8.0,53,-99.99,,,-99.99,,2013-03-21 03:32:00,
2013-03-20 21:03:00,47.0,29.0,-100.00,North,6,5.0,15.0,50,-99.99,,,-99.99,,2013-03-21 04:03:00,
2013-03-20 21:12:00,46.0,29.0,-100.00,North,357,9.0,16.0,51,-99.99,,,-99.99,,2013-03-21 04:12:00,
2013-03-20 21:22:00,45.0,27.0,-100.00,North,360,9.0,14.0,48,-99.99,,,-99.99,,2013-03-21 04:22:00,
2013-03-20 21:32:00,45.0,27.0,-100.00,North,360,9.0,14.0,48,-99.99,,,-99.99,,2013-03-21 04:32:00,
2013-03-20 21:43:00,45.0,27.0,-100.00,North,0,9.0,12.0,49,-99.99,,,-99.99,,2013-03-21 04:43:00,
2013-03-20 21:53:00,44.0,27.0,-100.00,NNE,18,10.0,13.0,50,-99.99,,,-99.99,,2013-03-21 04:53:00,
2013-03-20 22:02:00,44.0,26.0,-100.00,NNE,27,11.0,14.0,49,-99.99,,,-99.99,,2013-03-21 05:02:00,
2013-03-20 22:12:00,44.0,25.0,-100.00,NNE,32,9.0,15.0,47,-99.99,,,-99.99,,2013-03-21 05:12:00,
2013-03-20 22:22:00,45.0,25.0,-100.00,North,6,6.0,9.0,45,-99.99,,,-99.99,,2013-03-21 05:22:00,
2013-03-20 22:32:00,45.0,25.0,-100.00,North,356,4.0,10.0,45,-99.99,,,-99.99,,2013-03-21 05:32:00,
2013-03-20 22:43:00,43.0,25.0,-100.00,NNW,335,4.0,10.0,49,-99.99,,,-99.99,,2013-03-21 05:43:00,
2013-03-20 22:52:00,43.0,25.0,-100.00,North,357,8.0,12.0,49,-99.99,,,-99.99,,2013-03-21 05:52:00,
2013-03-20 23:02:00,43.0,25.0,-100.00,North,357,8.0,12.0,49,-99.99,,,-99.99,,2013-03-21 06:02:00,
2013-03-20 23:12:00,43.0,25.0,-100.00,North,357,8.0,12.0,49,-99.99,,,-99.99,,2013-03-21 06:12:00,
2013-03-20 23:42:00,43.0,24.0,-100.00,North,352,4.0,7.0,47,-99.99,,,-99.99,,2013-03-21 06:42:00,
2013-03-20 23:52:00,41.0,24.0,-100.00,North,354,3.0,7.0,50,-99.99,,,-99.99,,2013-03-21 06:52:00,